sensor_id;sensor_type;location;lat;lon;timestamp;P1;durP1;ratioP1;P2;durP2;ratioP2
22205;SDS011;11272;50.104;8.754;2022-09-09T00:07:01;4.80;;;0.93;;
22205;SDS011;11272;50.104;8.754;2022-09-09T00:09:47;2.30;;;1.00;;
22205;SDS011;11272;50.104;8.754;2022-09-09T00:14:56;5.10;;;0.90;;
22205;SDS011;11272;50.104;8.754;2022-09-09T00:17:49;3.80;;;1.07;;
22205;SDS011;11272;50.104;8.754;2022-09-09T00:25:53;1.40;;;0.90;;
22205;SDS011;11272;50.104;8.754;2022-09-09T00:28:28;4.13;;;1.40;;
22205;SDS011;11272;50.104;8.754;2022-09-09T00:30:59;3.40;;;1.13;;
22205;SDS011;11272;50.104;8.754;2022-09-09T00:33:34;10.57;;;1.20;;
22205;SDS011;11272;50.104;8.754;2022-09-09T00:36:00;2.47;;;0.87;;
22205;SDS011;11272;50.104;8.754;2022-09-09T00:41:02;2.37;;;1.07;;
22205;SDS011;11272;50.104;8.754;2022-09-09T00:43:57;4.17;;;1.13;;
22205;SDS011;11272;50.104;8.754;2022-09-09T00:49:42;5.40;;;1.20;;
22205;SDS011;11272;50.104;8.754;2022-09-09T00:55:18;3.27;;;1.23;;
22205;SDS011;11272;50.104;8.754;2022-09-09T00:58:08;4.67;;;1.30;;
22205;SDS011;11272;50.104;8.754;2022-09-09T01:00:42;4.67;;;1.10;;
22205;SDS011;11272;50.104;8.754;2022-09-09T01:05:54;8.80;;;1.47;;
22205;SDS011;11272;50.104;8.754;2022-09-09T01:26:13;5.37;;;1.23;;
22205;SDS011;11272;50.104;8.754;2022-09-09T01:28:46;3.27;;;1.20;;
22205;SDS011;11272;50.104;8.754;2022-09-09T01:31:17;4.30;;;1.30;;
22205;SDS011;11272;50.104;8.754;2022-09-09T01:33:46;3.93;;;1.43;;
22205;SDS011;11272;50.104;8.754;2022-09-09T01:36:27;4.20;;;1.47;;
22205;SDS011;11272;50.104;8.754;2022-09-09T01:38:58;3.37;;;1.60;;
22205;SDS011;11272;50.104;8.754;2022-09-09T01:41:27;6.73;;;1.60;;
22205;SDS011;11272;50.104;8.754;2022-09-09T01:44:04;3.80;;;1.33;;
22205;SDS011;11272;50.104;8.754;2022-09-09T01:46:34;3.77;;;1.60;;
22205;SDS011;11272;50.104;8.754;2022-09-09T01:49:00;5.23;;;1.33;;
22205;SDS011;11272;50.104;8.754;2022-09-09T01:51:29;3.33;;;1.60;;
22205;SDS011;11272;50.104;8.754;2022-09-09T01:53:58;3.07;;;1.40;;
22205;SDS011;11272;50.104;8.754;2022-09-09T01:56:37;7.27;;;1.53;;
22205;SDS011;11272;50.104;8.754;2022-09-09T02:04:10;2.77;;;1.50;;
22205;SDS011;11272;50.104;8.754;2022-09-09T02:06:51;2.97;;;1.70;;
22205;SDS011;11272;50.104;8.754;2022-09-09T02:09:25;3.93;;;1.50;;
22205;SDS011;11272;50.104;8.754;2022-09-09T02:11:56;3.93;;;1.40;;
22205;SDS011;11272;50.104;8.754;2022-09-09T02:14:41;3.50;;;1.63;;
22205;SDS011;11272;50.104;8.754;2022-09-09T02:17:10;2.17;;;1.40;;
22205;SDS011;11272;50.104;8.754;2022-09-09T02:20:03;2.87;;;1.50;;
22205;SDS011;11272;50.104;8.754;2022-09-09T02:23:06;2.97;;;1.47;;
22205;SDS011;11272;50.104;8.754;2022-09-09T02:25:35;7.67;;;1.90;;
22205;SDS011;11272;50.104;8.754;2022-09-09T02:28:13;2.60;;;1.60;;
22205;SDS011;11272;50.104;8.754;2022-09-09T02:30:42;3.80;;;1.50;;
22205;SDS011;11272;50.104;8.754;2022-09-09T02:33:15;4.83;;;1.70;;
22205;SDS011;11272;50.104;8.754;2022-09-09T02:35:44;4.83;;;1.50;;
22205;SDS011;11272;50.104;8.754;2022-09-09T02:38:13;2.90;;;1.43;;
22205;SDS011;11272;50.104;8.754;2022-09-09T02:40:53;4.53;;;1.80;;
22205;SDS011;11272;50.104;8.754;2022-09-09T02:43:19;2.77;;;1.47;;
22205;SDS011;11272;50.104;8.754;2022-09-09T02:46:50;4.10;;;1.73;;
22205;SDS011;11272;50.104;8.754;2022-09-09T02:52:05;6.50;;;1.80;;
22205;SDS011;11272;50.104;8.754;2022-09-09T02:54:35;5.50;;;1.37;;
22205;SDS011;11272;50.104;8.754;2022-09-09T02:57:09;2.87;;;1.47;;
22205;SDS011;11272;50.104;8.754;2022-09-09T02:59:39;4.87;;;1.60;;
22205;SDS011;11272;50.104;8.754;2022-09-09T03:02:07;3.53;;;1.30;;
22205;SDS011;11272;50.104;8.754;2022-09-09T03:04:35;5.33;;;1.57;;
22205;SDS011;11272;50.104;8.754;2022-09-09T03:07:00;5.20;;;1.50;;
22205;SDS011;11272;50.104;8.754;2022-09-09T03:09:28;6.10;;;1.60;;
22205;SDS011;11272;50.104;8.754;2022-09-09T03:11:55;2.93;;;1.47;;
22205;SDS011;11272;50.104;8.754;2022-09-09T03:14:22;5.90;;;1.70;;
22205;SDS011;11272;50.104;8.754;2022-09-09T03:16:51;3.67;;;1.50;;
22205;SDS011;11272;50.104;8.754;2022-09-09T03:19:18;6.17;;;1.53;;
22205;SDS011;11272;50.104;8.754;2022-09-09T03:21:44;4.73;;;1.50;;
22205;SDS011;11272;50.104;8.754;2022-09-09T03:24:11;4.13;;;1.50;;
22205;SDS011;11272;50.104;8.754;2022-09-09T03:26:37;4.20;;;1.60;;
22205;SDS011;11272;50.104;8.754;2022-09-09T03:29:07;2.73;;;1.30;;
22205;SDS011;11272;50.104;8.754;2022-09-09T03:31:34;2.70;;;1.70;;
22205;SDS011;11272;50.104;8.754;2022-09-09T03:34:01;5.33;;;1.50;;
22205;SDS011;11272;50.104;8.754;2022-09-09T03:36:32;5.13;;;1.50;;
22205;SDS011;11272;50.104;8.754;2022-09-09T03:38:57;4.60;;;1.47;;
22205;SDS011;11272;50.104;8.754;2022-09-09T03:41:28;3.63;;;1.83;;
22205;SDS011;11272;50.104;8.754;2022-09-09T03:43:54;3.37;;;1.60;;
22205;SDS011;11272;50.104;8.754;2022-09-09T03:46:23;8.60;;;2.50;;
22205;SDS011;11272;50.104;8.754;2022-09-09T03:48:50;6.03;;;1.60;;
22205;SDS011;11272;50.104;8.754;2022-09-09T03:51:17;4.27;;;1.80;;
22205;SDS011;11272;50.104;8.754;2022-09-09T03:53:43;4.77;;;2.10;;
22205;SDS011;11272;50.104;8.754;2022-09-09T03:56:09;5.37;;;1.80;;
22205;SDS011;11272;50.104;8.754;2022-09-09T03:58:35;4.20;;;1.20;;
22205;SDS011;11272;50.104;8.754;2022-09-09T04:01:07;7.90;;;1.73;;
22205;SDS011;11272;50.104;8.754;2022-09-09T04:03:40;4.60;;;1.50;;
22205;SDS011;11272;50.104;8.754;2022-09-09T04:06:07;5.07;;;1.83;;
22205;SDS011;11272;50.104;8.754;2022-09-09T04:08:41;4.10;;;1.40;;
22205;SDS011;11272;50.104;8.754;2022-09-09T04:11:07;4.03;;;1.43;;
22205;SDS011;11272;50.104;8.754;2022-09-09T04:13:34;7.20;;;1.53;;
22205;SDS011;11272;50.104;8.754;2022-09-09T04:16:03;4.67;;;1.70;;
22205;SDS011;11272;50.104;8.754;2022-09-09T04:18:29;4.03;;;1.40;;
22205;SDS011;11272;50.104;8.754;2022-09-09T04:20:55;4.17;;;1.40;;
22205;SDS011;11272;50.104;8.754;2022-09-09T04:23:27;5.53;;;1.27;;
22205;SDS011;11272;50.104;8.754;2022-09-09T04:25:58;5.93;;;1.27;;
22205;SDS011;11272;50.104;8.754;2022-09-09T04:28:26;4.17;;;1.63;;
22205;SDS011;11272;50.104;8.754;2022-09-09T04:30:54;8.90;;;1.83;;
22205;SDS011;11272;50.104;8.754;2022-09-09T04:33:25;2.87;;;1.50;;
22205;SDS011;11272;50.104;8.754;2022-09-09T04:35:52;1.43;;;1.30;;
22205;SDS011;11272;50.104;8.754;2022-09-09T04:38:20;3.70;;;1.50;;
22205;SDS011;11272;50.104;8.754;2022-09-09T04:40:48;4.40;;;1.70;;
22205;SDS011;11272;50.104;8.754;2022-09-09T04:43:16;3.73;;;1.40;;
22205;SDS011;11272;50.104;8.754;2022-09-09T04:45:43;4.90;;;1.30;;
22205;SDS011;11272;50.104;8.754;2022-09-09T04:48:11;4.17;;;1.20;;
22205;SDS011;11272;50.104;8.754;2022-09-09T04:50:37;5.13;;;1.50;;
22205;SDS011;11272;50.104;8.754;2022-09-09T04:53:05;2.97;;;1.43;;
22205;SDS011;11272;50.104;8.754;2022-09-09T04:55:36;3.17;;;1.10;;
22205;SDS011;11272;50.104;8.754;2022-09-09T04:58:05;2.60;;;1.23;;
22205;SDS011;11272;50.104;8.754;2022-09-09T05:00:31;4.23;;;1.20;;
22205;SDS011;11272;50.104;8.754;2022-09-09T05:03:02;2.97;;;1.40;;
22205;SDS011;11272;50.104;8.754;2022-09-09T05:05:29;4.43;;;1.30;;
22205;SDS011;11272;50.104;8.754;2022-09-09T05:08:00;5.07;;;1.03;;
22205;SDS011;11272;50.104;8.754;2022-09-09T05:10:27;2.63;;;1.43;;
22205;SDS011;11272;50.104;8.754;2022-09-09T05:12:52;6.13;;;1.40;;
22205;SDS011;11272;50.104;8.754;2022-09-09T05:15:19;6.00;;;1.47;;
22205;SDS011;11272;50.104;8.754;2022-09-09T05:17:46;5.30;;;1.40;;
22205;SDS011;11272;50.104;8.754;2022-09-09T05:20:12;7.37;;;1.30;;
22205;SDS011;11272;50.104;8.754;2022-09-09T05:22:37;5.63;;;1.27;;
22205;SDS011;11272;50.104;8.754;2022-09-09T05:25:03;4.13;;;1.30;;
22205;SDS011;11272;50.104;8.754;2022-09-09T05:27:29;9.73;;;1.60;;
22205;SDS011;11272;50.104;8.754;2022-09-09T05:29:57;3.73;;;1.10;;
22205;SDS011;11272;50.104;8.754;2022-09-09T05:32:23;9.37;;;1.50;;
22205;SDS011;11272;50.104;8.754;2022-09-09T05:34:49;3.93;;;1.37;;
22205;SDS011;11272;50.104;8.754;2022-09-09T05:37:16;4.07;;;1.40;;
22205;SDS011;11272;50.104;8.754;2022-09-09T05:39:42;4.40;;;1.20;;
22205;SDS011;11272;50.104;8.754;2022-09-09T05:42:09;3.37;;;1.30;;
22205;SDS011;11272;50.104;8.754;2022-09-09T05:44:38;2.67;;;1.00;;
22205;SDS011;11272;50.104;8.754;2022-09-09T05:47:07;6.13;;;1.50;;
22205;SDS011;11272;50.104;8.754;2022-09-09T05:49:33;5.17;;;1.40;;
22205;SDS011;11272;50.104;8.754;2022-09-09T05:51:58;3.77;;;1.43;;
22205;SDS011;11272;50.104;8.754;2022-09-09T05:54:24;5.57;;;1.30;;
22205;SDS011;11272;50.104;8.754;2022-09-09T05:56:51;4.50;;;1.30;;
22205;SDS011;11272;50.104;8.754;2022-09-09T05:59:18;5.10;;;1.30;;
22205;SDS011;11272;50.104;8.754;2022-09-09T06:01:44;2.80;;;1.20;;
22205;SDS011;11272;50.104;8.754;2022-09-09T06:04:20;8.73;;;1.23;;
22205;SDS011;11272;50.104;8.754;2022-09-09T06:06:47;4.90;;;1.20;;
22205;SDS011;11272;50.104;8.754;2022-09-09T06:09:18;3.50;;;0.97;;
22205;SDS011;11272;50.104;8.754;2022-09-09T06:11:43;6.93;;;1.17;;
22205;SDS011;11272;50.104;8.754;2022-09-09T06:14:10;1.63;;;0.90;;
22205;SDS011;11272;50.104;8.754;2022-09-09T06:16:37;4.80;;;1.40;;
22205;SDS011;11272;50.104;8.754;2022-09-09T06:19:14;2.50;;;0.90;;
22205;SDS011;11272;50.104;8.754;2022-09-09T06:21:40;6.50;;;1.30;;
22205;SDS011;11272;50.104;8.754;2022-09-09T06:24:07;6.40;;;1.00;;
22205;SDS011;11272;50.104;8.754;2022-09-09T06:26:34;5.83;;;1.00;;
22205;SDS011;11272;50.104;8.754;2022-09-09T06:29:03;3.33;;;1.00;;
22205;SDS011;11272;50.104;8.754;2022-09-09T06:31:30;2.63;;;1.00;;
22205;SDS011;11272;50.104;8.754;2022-09-09T06:34:06;6.30;;;1.00;;
22205;SDS011;11272;50.104;8.754;2022-09-09T06:36:38;3.27;;;1.10;;
22205;SDS011;11272;50.104;8.754;2022-09-09T06:39:04;4.97;;;0.90;;
22205;SDS011;11272;50.104;8.754;2022-09-09T06:41:32;3.43;;;1.30;;
22205;SDS011;11272;50.104;8.754;2022-09-09T06:44:00;3.43;;;1.37;;
22205;SDS011;11272;50.104;8.754;2022-09-09T06:46:40;5.93;;;1.20;;
22205;SDS011;11272;50.104;8.754;2022-09-09T06:49:08;4.07;;;1.10;;
22205;SDS011;11272;50.104;8.754;2022-09-09T06:51:35;4.83;;;1.20;;
22205;SDS011;11272;50.104;8.754;2022-09-09T06:54:04;6.67;;;1.53;;
22205;SDS011;11272;50.104;8.754;2022-09-09T06:56:31;5.03;;;1.10;;
22205;SDS011;11272;50.104;8.754;2022-09-09T06:59:06;4.20;;;1.10;;
22205;SDS011;11272;50.104;8.754;2022-09-09T07:01:35;3.37;;;0.77;;
22205;SDS011;11272;50.104;8.754;2022-09-09T07:04:05;4.07;;;1.07;;
22205;SDS011;11272;50.104;8.754;2022-09-09T07:06:37;3.03;;;1.10;;
22205;SDS011;11272;50.104;8.754;2022-09-09T07:09:07;4.43;;;1.07;;
22205;SDS011;11272;50.104;8.754;2022-09-09T07:11:45;6.60;;;0.93;;
22205;SDS011;11272;50.104;8.754;2022-09-09T07:14:14;8.30;;;1.43;;
22205;SDS011;11272;50.104;8.754;2022-09-09T07:16:44;4.50;;;1.00;;
22205;SDS011;11272;50.104;8.754;2022-09-09T07:19:12;4.50;;;0.93;;
22205;SDS011;11272;50.104;8.754;2022-09-09T07:21:40;3.73;;;1.10;;
22205;SDS011;11272;50.104;8.754;2022-09-09T07:24:11;5.00;;;1.20;;
22205;SDS011;11272;50.104;8.754;2022-09-09T07:26:39;6.37;;;1.40;;
22205;SDS011;11272;50.104;8.754;2022-09-09T07:29:06;3.27;;;1.10;;
22205;SDS011;11272;50.104;8.754;2022-09-09T07:31:33;6.17;;;1.20;;
22205;SDS011;11272;50.104;8.754;2022-09-09T07:34:02;5.53;;;1.10;;
22205;SDS011;11272;50.104;8.754;2022-09-09T07:36:29;2.97;;;1.00;;
22205;SDS011;11272;50.104;8.754;2022-09-09T07:38:59;5.20;;;1.17;;
22205;SDS011;11272;50.104;8.754;2022-09-09T07:41:33;4.63;;;1.00;;
22205;SDS011;11272;50.104;8.754;2022-09-09T07:44:06;2.87;;;1.17;;
22205;SDS011;11272;50.104;8.754;2022-09-09T07:46:34;2.53;;;1.00;;
22205;SDS011;11272;50.104;8.754;2022-09-09T07:49:01;5.63;;;1.30;;
22205;SDS011;11272;50.104;8.754;2022-09-09T07:51:31;6.97;;;1.27;;
22205;SDS011;11272;50.104;8.754;2022-09-09T07:53:59;5.67;;;1.23;;
22205;SDS011;11272;50.104;8.754;2022-09-09T07:56:32;5.73;;;1.33;;
22205;SDS011;11272;50.104;8.754;2022-09-09T07:59:00;8.53;;;1.47;;
22205;SDS011;11272;50.104;8.754;2022-09-09T08:01:28;5.37;;;1.33;;
22205;SDS011;11272;50.104;8.754;2022-09-09T08:03:57;4.97;;;1.30;;
22205;SDS011;11272;50.104;8.754;2022-09-09T08:06:27;6.43;;;1.30;;
22205;SDS011;11272;50.104;8.754;2022-09-09T08:08:58;10.83;;;1.40;;
22205;SDS011;11272;50.104;8.754;2022-09-09T08:11:25;5.40;;;1.70;;
22205;SDS011;11272;50.104;8.754;2022-09-09T08:13:52;8.10;;;2.03;;
22205;SDS011;11272;50.104;8.754;2022-09-09T08:16:25;3.17;;;1.27;;
22205;SDS011;11272;50.104;8.754;2022-09-09T08:18:52;6.53;;;1.50;;
22205;SDS011;11272;50.104;8.754;2022-09-09T08:21:23;5.70;;;1.30;;
22205;SDS011;11272;50.104;8.754;2022-09-09T08:23:52;3.67;;;1.07;;
22205;SDS011;11272;50.104;8.754;2022-09-09T08:26:21;8.50;;;1.70;;
22205;SDS011;11272;50.104;8.754;2022-09-09T08:28:52;5.53;;;1.50;;
22205;SDS011;11272;50.104;8.754;2022-09-09T08:31:24;3.80;;;1.20;;
22205;SDS011;11272;50.104;8.754;2022-09-09T08:33:54;3.20;;;1.50;;
22205;SDS011;11272;50.104;8.754;2022-09-09T08:36:22;4.00;;;1.30;;
22205;SDS011;11272;50.104;8.754;2022-09-09T08:38:49;4.23;;;1.30;;
22205;SDS011;11272;50.104;8.754;2022-09-09T08:44:08;3.60;;;1.40;;
22205;SDS011;11272;50.104;8.754;2022-09-09T08:46:50;5.57;;;1.50;;
22205;SDS011;11272;50.104;8.754;2022-09-09T08:55:20;3.37;;;1.20;;
22205;SDS011;11272;50.104;8.754;2022-09-09T08:57:49;6.40;;;1.60;;
22205;SDS011;11272;50.104;8.754;2022-09-09T09:00:18;7.97;;;1.40;;
22205;SDS011;11272;50.104;8.754;2022-09-09T09:02:54;4.10;;;1.23;;
22205;SDS011;11272;50.104;8.754;2022-09-09T09:05:33;5.53;;;1.10;;
22205;SDS011;11272;50.104;8.754;2022-09-09T09:08:12;3.83;;;1.40;;
22205;SDS011;11272;50.104;8.754;2022-09-09T09:10:45;9.23;;;1.67;;
22205;SDS011;11272;50.104;8.754;2022-09-09T09:13:18;11.07;;;1.50;;
22205;SDS011;11272;50.104;8.754;2022-09-09T09:15:58;4.57;;;1.07;;
22205;SDS011;11272;50.104;8.754;2022-09-09T09:18:27;8.17;;;1.67;;
22205;SDS011;11272;50.104;8.754;2022-09-09T09:21:02;3.87;;;1.23;;
22205;SDS011;11272;50.104;8.754;2022-09-09T09:26:35;4.70;;;1.20;;
22205;SDS011;11272;50.104;8.754;2022-09-09T09:29:10;2.83;;;0.90;;
22205;SDS011;11272;50.104;8.754;2022-09-09T09:31:37;5.67;;;1.47;;
22205;SDS011;11272;50.104;8.754;2022-09-09T09:34:03;8.60;;;1.20;;
22205;SDS011;11272;50.104;8.754;2022-09-09T09:36:37;5.83;;;1.47;;
22205;SDS011;11272;50.104;8.754;2022-09-09T09:39:27;6.20;;;1.63;;
22205;SDS011;11272;50.104;8.754;2022-09-09T09:42:10;6.53;;;1.50;;
22205;SDS011;11272;50.104;8.754;2022-09-09T09:44:43;8.60;;;1.67;;
22205;SDS011;11272;50.104;8.754;2022-09-09T09:47:16;6.40;;;1.43;;
22205;SDS011;11272;50.104;8.754;2022-09-09T09:49:52;12.23;;;1.90;;
22205;SDS011;11272;50.104;8.754;2022-09-09T09:52:20;21.10;;;2.27;;
22205;SDS011;11272;50.104;8.754;2022-09-09T09:54:49;41.13;;;3.53;;
22205;SDS011;11272;50.104;8.754;2022-09-09T09:57:22;16.73;;;2.37;;
22205;SDS011;11272;50.104;8.754;2022-09-09T10:02:42;8.10;;;1.87;;
22205;SDS011;11272;50.104;8.754;2022-09-09T10:05:18;26.50;;;3.37;;
22205;SDS011;11272;50.104;8.754;2022-09-09T10:08:10;9.87;;;2.27;;
22205;SDS011;11272;50.104;8.754;2022-09-09T10:10:51;8.60;;;2.10;;
22205;SDS011;11272;50.104;8.754;2022-09-09T10:19:14;12.83;;;1.27;;
22205;SDS011;11272;50.104;8.754;2022-09-09T10:21:51;13.93;;;2.67;;
22205;SDS011;11272;50.104;8.754;2022-09-09T10:33:32;4.93;;;1.50;;
22205;SDS011;11272;50.104;8.754;2022-09-09T10:36:13;5.17;;;1.63;;
22205;SDS011;11272;50.104;8.754;2022-09-09T10:46:57;4.80;;;1.13;;
22205;SDS011;11272;50.104;8.754;2022-09-09T10:52:26;5.83;;;1.07;;
22205;SDS011;11272;50.104;8.754;2022-09-09T10:55:00;6.33;;;1.10;;
22205;SDS011;11272;50.104;8.754;2022-09-09T11:00:14;3.93;;;1.17;;
22205;SDS011;11272;50.104;8.754;2022-09-09T11:02:51;6.20;;;1.17;;
22205;SDS011;11272;50.104;8.754;2022-09-09T11:05:41;32.90;;;2.83;;
22205;SDS011;11272;50.104;8.754;2022-09-09T11:11:02;43.70;;;3.90;;
22205;SDS011;11272;50.104;8.754;2022-09-09T11:19:19;11.93;;;2.53;;
22205;SDS011;11272;50.104;8.754;2022-09-09T11:22:07;7.67;;;1.80;;
22205;SDS011;11272;50.104;8.754;2022-09-09T11:24:43;9.20;;;1.80;;
22205;SDS011;11272;50.104;8.754;2022-09-09T11:27:18;8.53;;;2.20;;
22205;SDS011;11272;50.104;8.754;2022-09-09T11:38:16;6.23;;;1.70;;
22205;SDS011;11272;50.104;8.754;2022-09-09T11:40:46;7.10;;;1.70;;
22205;SDS011;11272;50.104;8.754;2022-09-09T11:44:08;6.13;;;1.73;;
22205;SDS011;11272;50.104;8.754;2022-09-09T11:46:09;13.60;;;1.70;;
22205;SDS011;11272;50.104;8.754;2022-09-09T11:48:39;10.67;;;2.10;;
22205;SDS011;11272;50.104;8.754;2022-09-09T11:53:52;6.60;;;1.80;;
22205;SDS011;11272;50.104;8.754;2022-09-09T11:56:32;6.90;;;1.57;;
22205;SDS011;11272;50.104;8.754;2022-09-09T11:59:29;5.07;;;1.60;;
22205;SDS011;11272;50.104;8.754;2022-09-09T12:04:33;8.23;;;1.70;;
22205;SDS011;11272;50.104;8.754;2022-09-09T12:07:20;8.93;;;1.50;;
22205;SDS011;11272;50.104;8.754;2022-09-09T12:10:04;4.30;;;1.63;;
22205;SDS011;11272;50.104;8.754;2022-09-09T12:12:36;3.80;;;1.40;;
22205;SDS011;11272;50.104;8.754;2022-09-09T12:17:44;4.40;;;1.20;;
22205;SDS011;11272;50.104;8.754;2022-09-09T12:20:22;6.77;;;1.30;;
22205;SDS011;11272;50.104;8.754;2022-09-09T12:28:17;5.47;;;1.50;;
22205;SDS011;11272;50.104;8.754;2022-09-09T12:31:01;7.03;;;1.57;;
22205;SDS011;11272;50.104;8.754;2022-09-09T12:33:42;5.47;;;0.93;;
22205;SDS011;11272;50.104;8.754;2022-09-09T12:36:14;4.20;;;0.87;;
22205;SDS011;11272;50.104;8.754;2022-09-09T12:38:46;6.77;;;1.30;;
22205;SDS011;11272;50.104;8.754;2022-09-09T12:41:25;2.37;;;0.87;;
22205;SDS011;11272;50.104;8.754;2022-09-09T12:44:05;5.17;;;1.23;;
22205;SDS011;11272;50.104;8.754;2022-09-09T12:49:18;3.30;;;1.20;;
22205;SDS011;11272;50.104;8.754;2022-09-09T12:51:49;5.57;;;1.30;;
22205;SDS011;11272;50.104;8.754;2022-09-09T12:54:15;19.03;;;1.73;;
22205;SDS011;11272;50.104;8.754;2022-09-09T12:56:45;13.10;;;1.70;;
22205;SDS011;11272;50.104;8.754;2022-09-09T12:59:27;11.37;;;1.60;;
22205;SDS011;11272;50.104;8.754;2022-09-09T13:02:11;6.93;;;1.40;;
22205;SDS011;11272;50.104;8.754;2022-09-09T13:04:42;8.90;;;1.53;;
22205;SDS011;11272;50.104;8.754;2022-09-09T13:07:09;7.47;;;1.30;;
22205;SDS011;11272;50.104;8.754;2022-09-09T13:09:37;4.67;;;1.50;;
22205;SDS011;11272;50.104;8.754;2022-09-09T13:12:02;6.60;;;1.20;;
22205;SDS011;11272;50.104;8.754;2022-09-09T13:14:33;5.33;;;1.30;;
22205;SDS011;11272;50.104;8.754;2022-09-09T13:17:04;6.90;;;1.50;;
22205;SDS011;11272;50.104;8.754;2022-09-09T13:19:34;5.70;;;1.70;;
22205;SDS011;11272;50.104;8.754;2022-09-09T13:22:12;3.87;;;1.63;;
22205;SDS011;11272;50.104;8.754;2022-09-09T13:24:42;5.87;;;1.97;;
22205;SDS011;11272;50.104;8.754;2022-09-09T13:29:53;5.13;;;2.00;;
22205;SDS011;11272;50.104;8.754;2022-09-09T13:32:22;6.17;;;1.60;;
22205;SDS011;11272;50.104;8.754;2022-09-09T13:34:56;7.80;;;1.87;;
22205;SDS011;11272;50.104;8.754;2022-09-09T13:37:30;2.93;;;0.90;;
22205;SDS011;11272;50.104;8.754;2022-09-09T13:40:00;2.83;;;0.80;;
22205;SDS011;11272;50.104;8.754;2022-09-09T13:42:27;4.00;;;0.90;;
22205;SDS011;11272;50.104;8.754;2022-09-09T13:44:56;3.90;;;1.20;;
22205;SDS011;11272;50.104;8.754;2022-09-09T13:47:27;1.60;;;0.77;;
22205;SDS011;11272;50.104;8.754;2022-09-09T13:49:56;3.53;;;1.00;;
22205;SDS011;11272;50.104;8.754;2022-09-09T13:52:22;1.77;;;0.93;;
22205;SDS011;11272;50.104;8.754;2022-09-09T13:54:48;2.00;;;1.03;;
22205;SDS011;11272;50.104;8.754;2022-09-09T13:57:18;3.23;;;1.20;;
22205;SDS011;11272;50.104;8.754;2022-09-09T13:59:46;2.23;;;0.93;;
22205;SDS011;11272;50.104;8.754;2022-09-09T14:02:12;1.27;;;0.70;;
22205;SDS011;11272;50.104;8.754;2022-09-09T14:04:38;2.07;;;0.93;;
22205;SDS011;11272;50.104;8.754;2022-09-09T14:07:07;1.40;;;0.57;;
22205;SDS011;11272;50.104;8.754;2022-09-09T14:09:36;2.17;;;0.70;;
22205;SDS011;11272;50.104;8.754;2022-09-09T14:12:02;1.60;;;0.70;;
22205;SDS011;11272;50.104;8.754;2022-09-09T14:14:27;2.30;;;0.60;;
22205;SDS011;11272;50.104;8.754;2022-09-09T14:16:53;5.43;;;0.67;;
22205;SDS011;11272;50.104;8.754;2022-09-09T14:19:21;6.63;;;1.20;;
22205;SDS011;11272;50.104;8.754;2022-09-09T14:21:50;2.60;;;0.80;;
22205;SDS011;11272;50.104;8.754;2022-09-09T14:24:15;1.60;;;0.50;;
22205;SDS011;11272;50.104;8.754;2022-09-09T14:26:41;2.80;;;0.60;;
22205;SDS011;11272;50.104;8.754;2022-09-09T14:29:08;5.47;;;0.80;;
22205;SDS011;11272;50.104;8.754;2022-09-09T14:31:34;7.03;;;0.70;;
22205;SDS011;11272;50.104;8.754;2022-09-09T14:33:59;4.77;;;0.70;;
22205;SDS011;11272;50.104;8.754;2022-09-09T14:36:25;2.50;;;0.60;;
22205;SDS011;11272;50.104;8.754;2022-09-09T14:38:50;5.07;;;0.80;;
22205;SDS011;11272;50.104;8.754;2022-09-09T14:41:18;5.43;;;0.83;;
22205;SDS011;11272;50.104;8.754;2022-09-09T14:43:47;5.77;;;0.67;;
22205;SDS011;11272;50.104;8.754;2022-09-09T14:46:15;4.30;;;0.70;;
22205;SDS011;11272;50.104;8.754;2022-09-09T14:48:41;8.40;;;0.77;;
22205;SDS011;11272;50.104;8.754;2022-09-09T14:51:09;5.40;;;0.93;;
22205;SDS011;11272;50.104;8.754;2022-09-09T14:53:37;2.27;;;0.90;;
22205;SDS011;11272;50.104;8.754;2022-09-09T14:56:05;5.30;;;0.90;;
22205;SDS011;11272;50.104;8.754;2022-09-09T14:58:35;3.47;;;0.70;;
22205;SDS011;11272;50.104;8.754;2022-09-09T15:01:08;4.03;;;0.70;;
22205;SDS011;11272;50.104;8.754;2022-09-09T15:03:36;3.00;;;0.63;;
22205;SDS011;11272;50.104;8.754;2022-09-09T15:06:12;7.27;;;0.83;;
22205;SDS011;11272;50.104;8.754;2022-09-09T15:08:40;4.30;;;0.80;;
22205;SDS011;11272;50.104;8.754;2022-09-09T15:11:06;2.50;;;0.70;;
22205;SDS011;11272;50.104;8.754;2022-09-09T15:13:32;2.43;;;0.60;;
22205;SDS011;11272;50.104;8.754;2022-09-09T15:16:05;2.00;;;0.70;;
22205;SDS011;11272;50.104;8.754;2022-09-09T15:18:31;3.87;;;0.70;;
22205;SDS011;11272;50.104;8.754;2022-09-09T15:20:58;4.73;;;0.80;;
22205;SDS011;11272;50.104;8.754;2022-09-09T15:23:26;3.83;;;0.87;;
22205;SDS011;11272;50.104;8.754;2022-09-09T15:25:53;8.67;;;0.60;;
22205;SDS011;11272;50.104;8.754;2022-09-09T15:28:20;2.83;;;0.70;;
22205;SDS011;11272;50.104;8.754;2022-09-09T15:30:49;6.20;;;0.63;;
22205;SDS011;11272;50.104;8.754;2022-09-09T15:33:17;4.43;;;0.80;;
22205;SDS011;11272;50.104;8.754;2022-09-09T15:35:46;3.50;;;0.80;;
22205;SDS011;11272;50.104;8.754;2022-09-09T15:38:16;2.53;;;0.73;;
22205;SDS011;11272;50.104;8.754;2022-09-09T15:40:42;2.13;;;0.80;;
22205;SDS011;11272;50.104;8.754;2022-09-09T15:43:08;5.23;;;0.83;;
22205;SDS011;11272;50.104;8.754;2022-09-09T15:45:37;7.73;;;0.90;;
22205;SDS011;11272;50.104;8.754;2022-09-09T15:48:03;2.20;;;0.87;;
22205;SDS011;11272;50.104;8.754;2022-09-09T15:50:30;2.10;;;0.80;;
22205;SDS011;11272;50.104;8.754;2022-09-09T15:52:57;2.93;;;0.77;;
22205;SDS011;11272;50.104;8.754;2022-09-09T15:55:23;2.87;;;0.77;;
22205;SDS011;11272;50.104;8.754;2022-09-09T15:57:49;3.27;;;0.60;;
22205;SDS011;11272;50.104;8.754;2022-09-09T16:00:17;2.73;;;0.80;;
22205;SDS011;11272;50.104;8.754;2022-09-09T16:02:46;3.53;;;0.80;;
22205;SDS011;11272;50.104;8.754;2022-09-09T16:05:12;2.00;;;0.60;;
22205;SDS011;11272;50.104;8.754;2022-09-09T16:07:38;5.53;;;0.80;;
22205;SDS011;11272;50.104;8.754;2022-09-09T16:10:06;3.43;;;0.87;;
22205;SDS011;11272;50.104;8.754;2022-09-09T16:12:32;1.60;;;0.83;;
22205;SDS011;11272;50.104;8.754;2022-09-09T16:14:57;5.23;;;0.80;;
22205;SDS011;11272;50.104;8.754;2022-09-09T16:17:24;1.37;;;0.60;;
22205;SDS011;11272;50.104;8.754;2022-09-09T16:19:50;0.90;;;0.40;;
22205;SDS011;11272;50.104;8.754;2022-09-09T16:22:15;1.07;;;0.67;;
22205;SDS011;11272;50.104;8.754;2022-09-09T16:24:41;6.60;;;0.90;;
22205;SDS011;11272;50.104;8.754;2022-09-09T16:27:06;2.40;;;0.93;;
22205;SDS011;11272;50.104;8.754;2022-09-09T16:29:32;2.17;;;0.80;;
22205;SDS011;11272;50.104;8.754;2022-09-09T16:31:57;2.83;;;0.70;;
22205;SDS011;11272;50.104;8.754;2022-09-09T16:34:23;1.63;;;0.83;;
22205;SDS011;11272;50.104;8.754;2022-09-09T16:36:50;1.53;;;0.70;;
22205;SDS011;11272;50.104;8.754;2022-09-09T16:39:17;1.67;;;0.60;;
22205;SDS011;11272;50.104;8.754;2022-09-09T16:41:44;2.13;;;0.70;;
22205;SDS011;11272;50.104;8.754;2022-09-09T16:44:12;5.83;;;0.80;;
22205;SDS011;11272;50.104;8.754;2022-09-09T16:46:46;4.10;;;1.07;;
22205;SDS011;11272;50.104;8.754;2022-09-09T16:49:13;1.57;;;0.83;;
22205;SDS011;11272;50.104;8.754;2022-09-09T16:51:41;5.20;;;1.13;;
22205;SDS011;11272;50.104;8.754;2022-09-09T16:54:09;3.13;;;0.87;;
22205;SDS011;11272;50.104;8.754;2022-09-09T16:56:38;10.77;;;1.17;;
22205;SDS011;11272;50.104;8.754;2022-09-09T16:59:09;1.17;;;0.70;;
22205;SDS011;11272;50.104;8.754;2022-09-09T17:01:41;2.77;;;1.17;;
22205;SDS011;11272;50.104;8.754;2022-09-09T17:04:18;3.80;;;1.20;;
22205;SDS011;11272;50.104;8.754;2022-09-09T17:06:49;3.53;;;0.70;;
22205;SDS011;11272;50.104;8.754;2022-09-09T17:09:17;4.23;;;1.00;;
22205;SDS011;11272;50.104;8.754;2022-09-09T17:11:44;4.00;;;0.97;;
22205;SDS011;11272;50.104;8.754;2022-09-09T17:14:11;3.80;;;0.90;;
22205;SDS011;11272;50.104;8.754;2022-09-09T17:16:39;2.33;;;1.30;;
22205;SDS011;11272;50.104;8.754;2022-09-09T17:19:05;3.23;;;1.40;;